Terminal Aerodrome Forecast
Issued by NWS

Home | Current Version | Previous Version | Text Only | Print | Product List | Glossary On
Versions: 1 2 3 4 5 6 7 8 9 10 11 12 13 14 15 16 17 18 19 20
488
FTUS41 KLWX 232344 AAB
TAFMTN
TAF AMD
KMTN 232344Z 2400/2424 10005KT P6SM -RA OVC025
     FM240600 03005KT P6SM OVC025
     FM241200 02005KT P6SM SCT025 OVC045
     FM241600 08006KT P6SM SCT025 BKN060
     FM241900 12008KT P6SM SCT025 BKN040
      AMD NOT SKED 2402/2412=

USA.gov is the U.S. government's official web portal to all federal, state and local government web resources and services.